Terminal Aerodrome Forecast
Issued by NWS Bismarck, ND

Home | Current Version | Previous Version | Text Only | Print | Product List | Glossary Off
Versions: 1 2 3 4 5 6 7 8 9 10 11 12 13 14

000
FTUS43 KBIS 250442 AAA
TAFISN
TAF AMD
KISN 250442Z 2505/2524 13015G22KT P6SM BKN150 WS020/16040KT
     FM251000 16008KT P6SM BKN200 WS020/19040KT
     FM251300 17007KT P6SM BKN150=

USA.gov is the U.S. government's official web portal to all federal, state and local government web resources and services.